sensor_id;sensor_type;location;lat;lon;timestamp;P1;durP1;ratioP1;P2;durP2;ratioP2
13404;SDS011;6773;51.192;7.024;2023-06-10T00:01:12;8.32;;;5.50;;
13404;SDS011;6773;51.192;7.024;2023-06-10T00:03:38;6.70;;;5.97;;
13404;SDS011;6773;51.192;7.024;2023-06-10T00:06:06;6.50;;;5.80;;
13404;SDS011;6773;51.192;7.024;2023-06-10T00:08:31;6.05;;;5.55;;
13404;SDS011;6773;51.192;7.024;2023-06-10T00:10:58;5.97;;;5.43;;
13404;SDS011;6773;51.192;7.024;2023-06-10T00:13:23;6.57;;;5.45;;
13404;SDS011;6773;51.192;7.024;2023-06-10T00:15:50;6.53;;;5.43;;
13404;SDS011;6773;51.192;7.024;2023-06-10T00:18:15;7.97;;;5.53;;
13404;SDS011;6773;51.192;7.024;2023-06-10T00:20:42;7.10;;;6.10;;
13404;SDS011;6773;51.192;7.024;2023-06-10T00:23:08;6.75;;;6.05;;
13404;SDS011;6773;51.192;7.024;2023-06-10T00:25:34;6.65;;;6.05;;
13404;SDS011;6773;51.192;7.024;2023-06-10T00:28:00;6.20;;;5.55;;
13404;SDS011;6773;51.192;7.024;2023-06-10T00:30:26;8.27;;;5.68;;
13404;SDS011;6773;51.192;7.024;2023-06-10T00:32:52;7.53;;;5.43;;
13404;SDS011;6773;51.192;7.024;2023-06-10T00:35:18;5.90;;;5.32;;
13404;SDS011;6773;51.192;7.024;2023-06-10T00:37:44;6.72;;;5.70;;
13404;SDS011;6773;51.192;7.024;2023-06-10T00:40:10;6.45;;;5.63;;
13404;SDS011;6773;51.192;7.024;2023-06-10T00:42:36;6.22;;;5.60;;
13404;SDS011;6773;51.192;7.024;2023-06-10T00:45:02;5.97;;;5.38;;
13404;SDS011;6773;51.192;7.024;2023-06-10T00:47:28;6.85;;;5.75;;
13404;SDS011;6773;51.192;7.024;2023-06-10T00:49:54;6.57;;;5.80;;
13404;SDS011;6773;51.192;7.024;2023-06-10T00:52:20;9.68;;;5.97;;
13404;SDS011;6773;51.192;7.024;2023-06-10T00:54:50;10.15;;;5.47;;
13404;SDS011;6773;51.192;7.024;2023-06-10T00:57:17;6.18;;;5.65;;
13404;SDS011;6773;51.192;7.024;2023-06-10T00:59:44;6.88;;;5.50;;
13404;SDS011;6773;51.192;7.024;2023-06-10T01:02:14;6.22;;;5.63;;
13404;SDS011;6773;51.192;7.024;2023-06-10T01:04:40;7.03;;;5.97;;
13404;SDS011;6773;51.192;7.024;2023-06-10T01:12:55;6.65;;;5.80;;
13404;SDS011;6773;51.192;7.024;2023-06-10T01:15:01;6.43;;;5.78;;
13404;SDS011;6773;51.192;7.024;2023-06-10T01:17:27;6.15;;;5.57;;
13404;SDS011;6773;51.192;7.024;2023-06-10T01:19:56;8.20;;;6.07;;
13404;SDS011;6773;51.192;7.024;2023-06-10T01:22:25;6.63;;;6.03;;
13404;SDS011;6773;51.192;7.024;2023-06-10T01:24:53;6.38;;;5.57;;
13404;SDS011;6773;51.192;7.024;2023-06-10T01:27:23;6.30;;;5.70;;
13404;SDS011;6773;51.192;7.024;2023-06-10T01:29:58;6.75;;;5.88;;
13404;SDS011;6773;51.192;7.024;2023-06-10T01:32:33;7.38;;;5.60;;
13404;SDS011;6773;51.192;7.024;2023-06-10T01:35:02;5.97;;;5.47;;
13404;SDS011;6773;51.192;7.024;2023-06-10T01:37:30;6.35;;;5.30;;
13404;SDS011;6773;51.192;7.024;2023-06-10T01:39:57;6.82;;;6.13;;
13404;SDS011;6773;51.192;7.024;2023-06-10T01:42:24;8.10;;;6.22;;
13404;SDS011;6773;51.192;7.024;2023-06-10T01:44:51;6.57;;;5.85;;
13404;SDS011;6773;51.192;7.024;2023-06-10T01:47:17;7.90;;;5.97;;
13404;SDS011;6773;51.192;7.024;2023-06-10T01:49:43;6.30;;;5.60;;
13404;SDS011;6773;51.192;7.024;2023-06-10T01:52:09;7.25;;;5.63;;
13404;SDS011;6773;51.192;7.024;2023-06-10T01:54:34;7.20;;;6.10;;
13404;SDS011;6773;51.192;7.024;2023-06-10T01:57:03;6.28;;;5.68;;
13404;SDS011;6773;51.192;7.024;2023-06-10T01:59:31;6.40;;;5.72;;
13404;SDS011;6773;51.192;7.024;2023-06-10T02:01:56;6.93;;;5.88;;
13404;SDS011;6773;51.192;7.024;2023-06-10T02:04:25;6.88;;;5.55;;
13404;SDS011;6773;51.192;7.024;2023-06-10T02:06:51;5.85;;;5.35;;
13404;SDS011;6773;51.192;7.024;2023-06-10T02:09:16;6.78;;;6.03;;
13404;SDS011;6773;51.192;7.024;2023-06-10T02:11:43;7.63;;;5.88;;
13404;SDS011;6773;51.192;7.024;2023-06-10T02:14:09;6.78;;;5.95;;
13404;SDS011;6773;51.192;7.024;2023-06-10T02:16:35;7.18;;;6.47;;
13404;SDS011;6773;51.192;7.024;2023-06-10T02:19:00;6.93;;;6.28;;
13404;SDS011;6773;51.192;7.024;2023-06-10T02:21:28;7.93;;;6.57;;
13404;SDS011;6773;51.192;7.024;2023-06-10T02:23:53;7.35;;;6.10;;
13404;SDS011;6773;51.192;7.024;2023-06-10T02:26:19;7.22;;;6.10;;
13404;SDS011;6773;51.192;7.024;2023-06-10T02:28:46;8.43;;;5.93;;
13404;SDS011;6773;51.192;7.024;2023-06-10T02:31:11;6.55;;;5.85;;
13404;SDS011;6773;51.192;7.024;2023-06-10T02:33:38;6.50;;;5.80;;
13404;SDS011;6773;51.192;7.024;2023-06-10T02:36:05;6.82;;;6.22;;
13404;SDS011;6773;51.192;7.024;2023-06-10T02:38:31;6.72;;;6.03;;
13404;SDS011;6773;51.192;7.024;2023-06-10T02:40:57;9.38;;;5.88;;
13404;SDS011;6773;51.192;7.024;2023-06-10T02:43:22;6.07;;;5.47;;
13404;SDS011;6773;51.192;7.024;2023-06-10T02:45:48;6.30;;;5.70;;
13404;SDS011;6773;51.192;7.024;2023-06-10T02:48:14;6.47;;;5.80;;
13404;SDS011;6773;51.192;7.024;2023-06-10T02:50:40;6.95;;;5.35;;
13404;SDS011;6773;51.192;7.024;2023-06-10T02:53:06;7.13;;;6.20;;
13404;SDS011;6773;51.192;7.024;2023-06-10T02:55:31;7.68;;;6.07;;
13404;SDS011;6773;51.192;7.024;2023-06-10T02:57:57;6.00;;;5.43;;
13404;SDS011;6773;51.192;7.024;2023-06-10T03:00:24;6.40;;;5.80;;
13404;SDS011;6773;51.192;7.024;2023-06-10T03:02:50;7.10;;;5.65;;
13404;SDS011;6773;51.192;7.024;2023-06-10T03:05:15;9.00;;;5.38;;
13404;SDS011;6773;51.192;7.024;2023-06-10T03:07:42;5.88;;;5.28;;
13404;SDS011;6773;51.192;7.024;2023-06-10T03:10:07;6.28;;;5.50;;
13404;SDS011;6773;51.192;7.024;2023-06-10T03:12:33;5.47;;;4.97;;
13404;SDS011;6773;51.192;7.024;2023-06-10T03:14:59;8.52;;;5.47;;
13404;SDS011;6773;51.192;7.024;2023-06-10T03:17:25;5.65;;;5.05;;
13404;SDS011;6773;51.192;7.024;2023-06-10T03:19:50;5.43;;;4.57;;
13404;SDS011;6773;51.192;7.024;2023-06-10T03:22:16;6.05;;;5.45;;
13404;SDS011;6773;51.192;7.024;2023-06-10T03:24:42;5.53;;;4.90;;
13404;SDS011;6773;51.192;7.024;2023-06-10T03:27:11;5.90;;;5.05;;
13404;SDS011;6773;51.192;7.024;2023-06-10T03:29:38;6.30;;;5.53;;
13404;SDS011;6773;51.192;7.024;2023-06-10T03:32:04;5.18;;;4.72;;
13404;SDS011;6773;51.192;7.024;2023-06-10T03:34:30;5.70;;;5.10;;
13404;SDS011;6773;51.192;7.024;2023-06-10T03:36:56;5.57;;;5.05;;
13404;SDS011;6773;51.192;7.024;2023-06-10T03:39:22;6.78;;;4.88;;
13404;SDS011;6773;51.192;7.024;2023-06-10T03:41:48;7.20;;;5.13;;
13404;SDS011;6773;51.192;7.024;2023-06-10T03:44:15;5.88;;;5.03;;
13404;SDS011;6773;51.192;7.024;2023-06-10T03:46:40;5.47;;;4.95;;
13404;SDS011;6773;51.192;7.024;2023-06-10T03:49:06;6.50;;;5.00;;
13404;SDS011;6773;51.192;7.024;2023-06-10T03:51:32;4.82;;;4.38;;
13404;SDS011;6773;51.192;7.024;2023-06-10T03:53:58;5.65;;;5.10;;
13404;SDS011;6773;51.192;7.024;2023-06-10T03:56:24;5.55;;;4.95;;
13404;SDS011;6773;51.192;7.024;2023-06-10T03:58:50;7.25;;;5.00;;
13404;SDS011;6773;51.192;7.024;2023-06-10T04:01:16;5.60;;;4.75;;
13404;SDS011;6773;51.192;7.024;2023-06-10T04:03:43;6.28;;;4.93;;
13404;SDS011;6773;51.192;7.024;2023-06-10T04:06:09;7.07;;;4.03;;
13404;SDS011;6773;51.192;7.024;2023-06-10T04:08:34;5.80;;;4.40;;
13404;SDS011;6773;51.192;7.024;2023-06-10T04:11:01;5.03;;;4.15;;
13404;SDS011;6773;51.192;7.024;2023-06-10T04:13:27;5.03;;;4.50;;
13404;SDS011;6773;51.192;7.024;2023-06-10T04:15:52;5.68;;;4.50;;
13404;SDS011;6773;51.192;7.024;2023-06-10T04:18:19;5.10;;;4.40;;
13404;SDS011;6773;51.192;7.024;2023-06-10T04:20:46;4.70;;;4.13;;
13404;SDS011;6773;51.192;7.024;2023-06-10T04:23:12;4.32;;;3.92;;
13404;SDS011;6773;51.192;7.024;2023-06-10T04:25:38;5.63;;;4.72;;
13404;SDS011;6773;51.192;7.024;2023-06-10T04:28:04;6.30;;;4.53;;
13404;SDS011;6773;51.192;7.024;2023-06-10T04:30:29;5.50;;;4.38;;
13404;SDS011;6773;51.192;7.024;2023-06-10T04:32:56;5.13;;;4.63;;
13404;SDS011;6773;51.192;7.024;2023-06-10T04:35:22;4.90;;;4.40;;
13404;SDS011;6773;51.192;7.024;2023-06-10T04:37:48;5.82;;;4.38;;
13404;SDS011;6773;51.192;7.024;2023-06-10T04:40:14;5.63;;;4.65;;
13404;SDS011;6773;51.192;7.024;2023-06-10T04:42:41;4.70;;;4.00;;
13404;SDS011;6773;51.192;7.024;2023-06-10T04:45:07;4.95;;;4.38;;
13404;SDS011;6773;51.192;7.024;2023-06-10T04:47:33;5.60;;;4.78;;
13404;SDS011;6773;51.192;7.024;2023-06-10T04:50:02;5.18;;;4.70;;
13404;SDS011;6773;51.192;7.024;2023-06-10T04:52:29;6.28;;;5.05;;
13404;SDS011;6773;51.192;7.024;2023-06-10T04:54:54;4.97;;;4.20;;
13404;SDS011;6773;51.192;7.024;2023-06-10T04:57:21;5.32;;;4.22;;
13404;SDS011;6773;51.192;7.024;2023-06-10T04:59:47;4.40;;;4.00;;
13404;SDS011;6773;51.192;7.024;2023-06-10T05:02:13;6.07;;;4.15;;
13404;SDS011;6773;51.192;7.024;2023-06-10T05:04:38;4.88;;;4.38;;
13404;SDS011;6773;51.192;7.024;2023-06-10T05:07:04;5.03;;;4.57;;
13404;SDS011;6773;51.192;7.024;2023-06-10T05:09:30;5.15;;;4.50;;
13404;SDS011;6773;51.192;7.024;2023-06-10T05:11:56;4.82;;;4.05;;
13404;SDS011;6773;51.192;7.024;2023-06-10T05:14:21;7.32;;;4.70;;
13404;SDS011;6773;51.192;7.024;2023-06-10T05:16:48;6.93;;;4.78;;
13404;SDS011;6773;51.192;7.024;2023-06-10T05:19:14;5.07;;;4.55;;
13404;SDS011;6773;51.192;7.024;2023-06-10T05:21:44;5.22;;;4.30;;
13404;SDS011;6773;51.192;7.024;2023-06-10T05:24:10;4.60;;;4.20;;
13404;SDS011;6773;51.192;7.024;2023-06-10T05:26:36;6.28;;;4.95;;
13404;SDS011;6773;51.192;7.024;2023-06-10T05:29:03;5.45;;;4.80;;
13404;SDS011;6773;51.192;7.024;2023-06-10T05:31:29;6.70;;;5.35;;
13404;SDS011;6773;51.192;7.024;2023-06-10T05:33:55;5.07;;;4.57;;
13404;SDS011;6773;51.192;7.024;2023-06-10T05:36:24;6.32;;;4.55;;
13404;SDS011;6773;51.192;7.024;2023-06-10T05:38:55;4.75;;;4.28;;
13404;SDS011;6773;51.192;7.024;2023-06-10T05:41:21;4.75;;;4.18;;
13404;SDS011;6773;51.192;7.024;2023-06-10T05:43:47;6.28;;;4.60;;
13404;SDS011;6773;51.192;7.024;2023-06-10T05:46:13;5.57;;;4.63;;
13404;SDS011;6773;51.192;7.024;2023-06-10T05:48:39;4.90;;;4.40;;
13404;SDS011;6773;51.192;7.024;2023-06-10T05:51:05;5.45;;;4.65;;
13404;SDS011;6773;51.192;7.024;2023-06-10T05:53:31;5.70;;;4.50;;
13404;SDS011;6773;51.192;7.024;2023-06-10T05:55:57;5.00;;;4.20;;
13404;SDS011;6773;51.192;7.024;2023-06-10T05:58:23;5.32;;;4.22;;
13404;SDS011;6773;51.192;7.024;2023-06-10T06:00:52;5.10;;;4.45;;
13404;SDS011;6773;51.192;7.024;2023-06-10T06:03:17;5.30;;;4.40;;
13404;SDS011;6773;51.192;7.024;2023-06-10T06:05:44;4.90;;;4.50;;
13404;SDS011;6773;51.192;7.024;2023-06-10T06:08:11;6.00;;;4.85;;
13404;SDS011;6773;51.192;7.024;2023-06-10T06:10:38;6.22;;;4.53;;
13404;SDS011;6773;51.192;7.024;2023-06-10T06:13:04;5.63;;;4.45;;
13404;SDS011;6773;51.192;7.024;2023-06-10T06:15:30;5.30;;;4.70;;
13404;SDS011;6773;51.192;7.024;2023-06-10T06:17:56;5.00;;;4.50;;
13404;SDS011;6773;51.192;7.024;2023-06-10T06:20:25;5.85;;;4.47;;
13404;SDS011;6773;51.192;7.024;2023-06-10T06:22:50;4.90;;;4.40;;
13404;SDS011;6773;51.192;7.024;2023-06-10T06:25:16;5.78;;;4.60;;
13404;SDS011;6773;51.192;7.024;2023-06-10T06:27:41;5.65;;;4.40;;
13404;SDS011;6773;51.192;7.024;2023-06-10T06:30:07;5.05;;;4.18;;
13404;SDS011;6773;51.192;7.024;2023-06-10T06:32:33;6.80;;;4.65;;
13404;SDS011;6773;51.192;7.024;2023-06-10T06:34:59;5.30;;;4.45;;
13404;SDS011;6773;51.192;7.024;2023-06-10T06:37:24;6.47;;;4.85;;
13404;SDS011;6773;51.192;7.024;2023-06-10T06:39:53;5.43;;;4.57;;
13404;SDS011;6773;51.192;7.024;2023-06-10T06:42:20;5.47;;;4.65;;
13404;SDS011;6773;51.192;7.024;2023-06-10T06:44:49;5.55;;;4.57;;
13404;SDS011;6773;51.192;7.024;2023-06-10T06:47:15;5.65;;;4.53;;
13404;SDS011;6773;51.192;7.024;2023-06-10T06:49:44;5.82;;;4.70;;
13404;SDS011;6773;51.192;7.024;2023-06-10T06:52:10;5.03;;;4.53;;
13404;SDS011;6773;51.192;7.024;2023-06-10T06:54:36;6.30;;;4.97;;
13404;SDS011;6773;51.192;7.024;2023-06-10T06:57:02;5.53;;;4.82;;
13404;SDS011;6773;51.192;7.024;2023-06-10T06:59:27;6.60;;;4.85;;
13404;SDS011;6773;51.192;7.024;2023-06-10T07:01:53;4.72;;;4.22;;
13404;SDS011;6773;51.192;7.024;2023-06-10T07:04:19;7.95;;;4.55;;
13404;SDS011;6773;51.192;7.024;2023-06-10T07:06:46;6.63;;;4.45;;
13404;SDS011;6773;51.192;7.024;2023-06-10T07:09:12;5.40;;;4.90;;
13404;SDS011;6773;51.192;7.024;2023-06-10T07:11:38;5.18;;;4.68;;
13404;SDS011;6773;51.192;7.024;2023-06-10T07:14:04;7.35;;;4.53;;
13404;SDS011;6773;51.192;7.024;2023-06-10T07:16:31;5.68;;;5.03;;
13404;SDS011;6773;51.192;7.024;2023-06-10T07:18:57;5.38;;;4.70;;
13404;SDS011;6773;51.192;7.024;2023-06-10T07:21:23;5.47;;;4.45;;
13404;SDS011;6773;51.192;7.024;2023-06-10T07:23:49;5.20;;;4.60;;
13404;SDS011;6773;51.192;7.024;2023-06-10T07:26:18;5.68;;;5.07;;
13404;SDS011;6773;51.192;7.024;2023-06-10T07:28:44;5.18;;;4.78;;
13404;SDS011;6773;51.192;7.024;2023-06-10T07:31:10;6.43;;;4.60;;
13404;SDS011;6773;51.192;7.024;2023-06-10T07:33:37;5.47;;;4.90;;
13404;SDS011;6773;51.192;7.024;2023-06-10T07:36:04;5.75;;;4.90;;
13404;SDS011;6773;51.192;7.024;2023-06-10T07:38:30;5.88;;;4.38;;
13404;SDS011;6773;51.192;7.024;2023-06-10T07:40:56;6.07;;;4.95;;
13404;SDS011;6773;51.192;7.024;2023-06-10T07:43:21;5.80;;;5.20;;
13404;SDS011;6773;51.192;7.024;2023-06-10T07:45:47;9.20;;;5.00;;
13404;SDS011;6773;51.192;7.024;2023-06-10T07:48:13;6.68;;;5.40;;
13404;SDS011;6773;51.192;7.024;2023-06-10T07:50:38;5.30;;;4.80;;
13404;SDS011;6773;51.192;7.024;2023-06-10T07:53:05;6.60;;;4.82;;
13404;SDS011;6773;51.192;7.024;2023-06-10T07:55:30;6.50;;;4.93;;
13404;SDS011;6773;51.192;7.024;2023-06-10T07:57:56;5.47;;;4.97;;
13404;SDS011;6773;51.192;7.024;2023-06-10T08:00:22;6.32;;;4.78;;
13404;SDS011;6773;51.192;7.024;2023-06-10T08:02:48;5.70;;;4.80;;
13404;SDS011;6773;51.192;7.024;2023-06-10T08:05:13;5.40;;;4.68;;
13404;SDS011;6773;51.192;7.024;2023-06-10T08:07:39;6.80;;;5.13;;
13404;SDS011;6773;51.192;7.024;2023-06-10T08:10:05;5.50;;;5.00;;
13404;SDS011;6773;51.192;7.024;2023-06-10T08:12:32;7.57;;;4.90;;
13404;SDS011;6773;51.192;7.024;2023-06-10T08:14:58;6.30;;;5.15;;
13404;SDS011;6773;51.192;7.024;2023-06-10T08:17:24;4.95;;;4.55;;
13404;SDS011;6773;51.192;7.024;2023-06-10T08:19:50;7.97;;;4.88;;
13404;SDS011;6773;51.192;7.024;2023-06-10T08:22:16;5.88;;;4.72;;
13404;SDS011;6773;51.192;7.024;2023-06-10T08:24:42;6.85;;;5.10;;
13404;SDS011;6773;51.192;7.024;2023-06-10T08:27:08;5.72;;;5.22;;
13404;SDS011;6773;51.192;7.024;2023-06-10T08:29:35;6.05;;;4.97;;
13404;SDS011;6773;51.192;7.024;2023-06-10T08:32:00;6.05;;;5.13;;
13404;SDS011;6773;51.192;7.024;2023-06-10T08:34:26;7.47;;;5.10;;
13404;SDS011;6773;51.192;7.024;2023-06-10T08:36:52;6.75;;;5.53;;
13404;SDS011;6773;51.192;7.024;2023-06-10T08:39:20;6.32;;;5.72;;
13404;SDS011;6773;51.192;7.024;2023-06-10T08:42:33;6.15;;;5.57;;
13404;SDS011;6773;51.192;7.024;2023-06-10T08:44:44;6.25;;;5.65;;
13404;SDS011;6773;51.192;7.024;2023-06-10T08:47:15;6.63;;;4.85;;
13404;SDS011;6773;51.192;7.024;2023-06-10T08:49:45;7.07;;;4.85;;
13404;SDS011;6773;51.192;7.024;2023-06-10T08:52:18;8.25;;;5.50;;
13404;SDS011;6773;51.192;7.024;2023-06-10T08:57:41;6.90;;;5.03;;
13404;SDS011;6773;51.192;7.024;2023-06-10T09:00:07;6.03;;;5.43;;
13404;SDS011;6773;51.192;7.024;2023-06-10T09:02:33;6.10;;;5.50;;
13404;SDS011;6773;51.192;7.024;2023-06-10T09:05:03;8.32;;;5.35;;
13404;SDS011;6773;51.192;7.024;2023-06-10T09:07:30;5.93;;;5.30;;
13404;SDS011;6773;51.192;7.024;2023-06-10T09:09:56;6.18;;;5.57;;
13404;SDS011;6773;51.192;7.024;2023-06-10T09:12:23;8.68;;;5.43;;
13404;SDS011;6773;51.192;7.024;2023-06-10T09:14:52;7.93;;;5.75;;
13404;SDS011;6773;51.192;7.024;2023-06-10T09:17:17;7.22;;;5.45;;
13404;SDS011;6773;51.192;7.024;2023-06-10T09:19:44;6.00;;;5.32;;
13404;SDS011;6773;51.192;7.024;2023-06-10T09:22:10;7.35;;;5.68;;
13404;SDS011;6773;51.192;7.024;2023-06-10T09:24:36;6.38;;;5.35;;
13404;SDS011;6773;51.192;7.024;2023-06-10T09:27:08;8.90;;;5.97;;
13404;SDS011;6773;51.192;7.024;2023-06-10T09:32:22;6.57;;;5.15;;
13404;SDS011;6773;51.192;7.024;2023-06-10T09:34:49;6.20;;;5.60;;
13404;SDS011;6773;51.192;7.024;2023-06-10T09:37:22;5.88;;;5.38;;
13404;SDS011;6773;51.192;7.024;2023-06-10T09:40:05;5.75;;;4.93;;
13404;SDS011;6773;51.192;7.024;2023-06-10T09:42:37;7.15;;;5.50;;
13404;SDS011;6773;51.192;7.024;2023-06-10T09:45:08;6.00;;;5.40;;
13404;SDS011;6773;51.192;7.024;2023-06-10T09:47:34;9.00;;;5.70;;
13404;SDS011;6773;51.192;7.024;2023-06-10T09:49:59;7.40;;;5.30;;
13404;SDS011;6773;51.192;7.024;2023-06-10T09:52:27;7.70;;;5.35;;
13404;SDS011;6773;51.192;7.024;2023-06-10T09:54:55;6.55;;;5.47;;
13404;SDS011;6773;51.192;7.024;2023-06-10T09:57:33;6.55;;;5.38;;
13404;SDS011;6773;51.192;7.024;2023-06-10T10:00:04;5.80;;;5.30;;
13404;SDS011;6773;51.192;7.024;2023-06-10T10:02:31;7.65;;;5.50;;
13404;SDS011;6773;51.192;7.024;2023-06-10T10:05:02;6.20;;;5.45;;
13404;SDS011;6773;51.192;7.024;2023-06-10T10:07:29;8.57;;;5.70;;
13404;SDS011;6773;51.192;7.024;2023-06-10T10:09:55;6.32;;;5.38;;
13404;SDS011;6773;51.192;7.024;2023-06-10T10:12:21;6.88;;;5.15;;
13404;SDS011;6773;51.192;7.024;2023-06-10T10:14:48;5.82;;;5.28;;
13404;SDS011;6773;51.192;7.024;2023-06-10T10:17:15;5.72;;;5.13;;
13404;SDS011;6773;51.192;7.024;2023-06-10T10:19:53;8.23;;;5.10;;
13404;SDS011;6773;51.192;7.024;2023-06-10T10:22:29;5.72;;;5.18;;
13404;SDS011;6773;51.192;7.024;2023-06-10T10:25:02;7.55;;;5.13;;
13404;SDS011;6773;51.192;7.024;2023-06-10T10:27:35;6.28;;;5.20;;
13404;SDS011;6773;51.192;7.024;2023-06-10T10:30:02;5.65;;;4.72;;
13404;SDS011;6773;51.192;7.024;2023-06-10T10:32:50;6.18;;;5.47;;
13404;SDS011;6773;51.192;7.024;2023-06-10T10:35:19;9.00;;;5.50;;
13404;SDS011;6773;51.192;7.024;2023-06-10T10:37:48;5.95;;;5.35;;
13404;SDS011;6773;51.192;7.024;2023-06-10T10:40:15;5.55;;;5.05;;
13404;SDS011;6773;51.192;7.024;2023-06-10T10:42:41;7.05;;;5.18;;
13404;SDS011;6773;51.192;7.024;2023-06-10T10:45:08;6.78;;;5.45;;
13404;SDS011;6773;51.192;7.024;2023-06-10T10:47:34;6.43;;;5.32;;
13404;SDS011;6773;51.192;7.024;2023-06-10T10:50:03;6.90;;;5.47;;
13404;SDS011;6773;51.192;7.024;2023-06-10T10:55:29;6.80;;;5.13;;
13404;SDS011;6773;51.192;7.024;2023-06-10T11:01:03;5.93;;;5.00;;
13404;SDS011;6773;51.192;7.024;2023-06-10T11:03:14;7.18;;;5.00;;
13404;SDS011;6773;51.192;7.024;2023-06-10T11:05:44;8.20;;;5.60;;
13404;SDS011;6773;51.192;7.024;2023-06-10T11:08:15;5.78;;;5.13;;
13404;SDS011;6773;51.192;7.024;2023-06-10T11:11:00;5.78;;;4.63;;
13404;SDS011;6773;51.192;7.024;2023-06-10T11:13:42;9.65;;;5.07;;
13404;SDS011;6773;51.192;7.024;2023-06-10T11:16:41;5.43;;;4.88;;
13404;SDS011;6773;51.192;7.024;2023-06-10T11:19:08;6.03;;;5.10;;
13404;SDS011;6773;51.192;7.024;2023-06-10T11:24:32;5.78;;;5.18;;
13404;SDS011;6773;51.192;7.024;2023-06-10T11:29:56;5.75;;;5.20;;
13404;SDS011;6773;51.192;7.024;2023-06-10T11:32:33;6.70;;;5.10;;
13404;SDS011;6773;51.192;7.024;2023-06-10T11:35:00;6.47;;;5.45;;
13404;SDS011;6773;51.192;7.024;2023-06-10T11:37:28;5.93;;;4.95;;
13404;SDS011;6773;51.192;7.024;2023-06-10T11:39:57;5.50;;;5.00;;
13404;SDS011;6773;51.192;7.024;2023-06-10T11:42:23;6.03;;;5.43;;
13404;SDS011;6773;51.192;7.024;2023-06-10T11:44:50;5.18;;;4.68;;
13404;SDS011;6773;51.192;7.024;2023-06-10T11:47:17;6.18;;;5.25;;
13404;SDS011;6773;51.192;7.024;2023-06-10T11:49:43;8.52;;;5.60;;
13404;SDS011;6773;51.192;7.024;2023-06-10T11:52:09;6.13;;;5.25;;
13404;SDS011;6773;51.192;7.024;2023-06-10T11:54:35;6.78;;;5.40;;
13404;SDS011;6773;51.192;7.024;2023-06-10T11:57:02;5.53;;;4.95;;
13404;SDS011;6773;51.192;7.024;2023-06-10T11:59:33;6.85;;;5.13;;
13404;SDS011;6773;51.192;7.024;2023-06-10T12:01:59;7.15;;;6.03;;
13404;SDS011;6773;51.192;7.024;2023-06-10T12:04:25;5.90;;;5.25;;
13404;SDS011;6773;51.192;7.024;2023-06-10T12:06:54;5.90;;;5.30;;
13404;SDS011;6773;51.192;7.024;2023-06-10T12:09:27;6.25;;;5.32;;
13404;SDS011;6773;51.192;7.024;2023-06-10T12:17:12;6.47;;;5.45;;
13404;SDS011;6773;51.192;7.024;2023-06-10T12:19:38;7.30;;;5.60;;
13404;SDS011;6773;51.192;7.024;2023-06-10T12:22:05;8.13;;;5.60;;
13404;SDS011;6773;51.192;7.024;2023-06-10T12:24:31;6.50;;;5.07;;
13404;SDS011;6773;51.192;7.024;2023-06-10T12:26:56;5.38;;;4.85;;
13404;SDS011;6773;51.192;7.024;2023-06-10T12:29:22;5.13;;;4.72;;
13404;SDS011;6773;51.192;7.024;2023-06-10T12:31:58;5.22;;;4.72;;
13404;SDS011;6773;51.192;7.024;2023-06-10T12:34:35;6.55;;;4.97;;
13404;SDS011;6773;51.192;7.024;2023-06-10T12:37:02;5.72;;;5.15;;
13404;SDS011;6773;51.192;7.024;2023-06-10T12:39:33;5.90;;;4.60;;
13404;SDS011;6773;51.192;7.024;2023-06-10T12:41:59;8.15;;;4.95;;
13404;SDS011;6773;51.192;7.024;2023-06-10T12:44:29;5.13;;;4.63;;
13404;SDS011;6773;51.192;7.024;2023-06-10T12:46:55;5.40;;;4.88;;
13404;SDS011;6773;51.192;7.024;2023-06-10T12:49:21;5.35;;;4.85;;
13404;SDS011;6773;51.192;7.024;2023-06-10T12:51:47;7.50;;;4.75;;
13404;SDS011;6773;51.192;7.024;2023-06-10T12:54:13;5.53;;;4.75;;
13404;SDS011;6773;51.192;7.024;2023-06-10T12:56:39;5.97;;;4.93;;
13404;SDS011;6773;51.192;7.024;2023-06-10T12:59:04;5.53;;;4.97;;
13404;SDS011;6773;51.192;7.024;2023-06-10T13:01:31;5.10;;;4.63;;
13404;SDS011;6773;51.192;7.024;2023-06-10T13:03:57;6.63;;;5.25;;
13404;SDS011;6773;51.192;7.024;2023-06-10T13:06:23;5.55;;;5.05;;
13404;SDS011;6773;51.192;7.024;2023-06-10T13:08:49;5.55;;;5.05;;
13404;SDS011;6773;51.192;7.024;2023-06-10T13:11:16;9.10;;;5.30;;
13404;SDS011;6773;51.192;7.024;2023-06-10T13:13:41;6.05;;;5.43;;
13404;SDS011;6773;51.192;7.024;2023-06-10T13:16:07;5.80;;;5.25;;
13404;SDS011;6773;51.192;7.024;2023-06-10T13:18:33;5.15;;;4.63;;
13404;SDS011;6773;51.192;7.024;2023-06-10T13:21:02;6.78;;;5.07;;
13404;SDS011;6773;51.192;7.024;2023-06-10T13:23:29;5.93;;;4.72;;
13404;SDS011;6773;51.192;7.024;2023-06-10T13:25:56;6.60;;;4.90;;
13404;SDS011;6773;51.192;7.024;2023-06-10T13:28:22;7.22;;;5.07;;
13404;SDS011;6773;51.192;7.024;2023-06-10T13:30:48;5.80;;;5.05;;
13404;SDS011;6773;51.192;7.024;2023-06-10T13:33:14;5.32;;;4.82;;
13404;SDS011;6773;51.192;7.024;2023-06-10T13:35:39;5.00;;;4.50;;
13404;SDS011;6773;51.192;7.024;2023-06-10T13:38:06;6.47;;;5.20;;
13404;SDS011;6773;51.192;7.024;2023-06-10T13:40:32;5.28;;;4.72;;
13404;SDS011;6773;51.192;7.024;2023-06-10T13:42:58;7.35;;;4.85;;
13404;SDS011;6773;51.192;7.024;2023-06-10T13:45:24;6.78;;;5.60;;
13404;SDS011;6773;51.192;7.024;2023-06-10T13:47:50;5.93;;;4.75;;
13404;SDS011;6773;51.192;7.024;2023-06-10T13:50:16;5.28;;;4.82;;
13404;SDS011;6773;51.192;7.024;2023-06-10T13:52:41;10.57;;;4.82;;
13404;SDS011;6773;51.192;7.024;2023-06-10T13:55:07;5.50;;;5.00;;
13404;SDS011;6773;51.192;7.024;2023-06-10T13:57:34;5.68;;;5.05;;
13404;SDS011;6773;51.192;7.024;2023-06-10T13:59:59;6.22;;;4.63;;
13404;SDS011;6773;51.192;7.024;2023-06-10T14:02:25;5.53;;;5.03;;
13404;SDS011;6773;51.192;7.024;2023-06-10T14:04:51;5.57;;;5.07;;
13404;SDS011;6773;51.192;7.024;2023-06-10T14:07:17;5.50;;;4.85;;
13404;SDS011;6773;51.192;7.024;2023-06-10T14:09:42;5.05;;;4.55;;
13404;SDS011;6773;51.192;7.024;2023-06-10T14:12:09;4.93;;;4.43;;
13404;SDS011;6773;51.192;7.024;2023-06-10T14:14:36;5.72;;;4.95;;
13404;SDS011;6773;51.192;7.024;2023-06-10T14:17:02;6.70;;;4.80;;
13404;SDS011;6773;51.192;7.024;2023-06-10T14:19:29;6.03;;;5.43;;
13404;SDS011;6773;51.192;7.024;2023-06-10T14:21:55;5.80;;;5.20;;
13404;SDS011;6773;51.192;7.024;2023-06-10T14:24:21;6.47;;;4.72;;
13404;SDS011;6773;51.192;7.024;2023-06-10T14:26:47;5.30;;;4.80;;
13404;SDS011;6773;51.192;7.024;2023-06-10T14:29:12;7.72;;;5.20;;
13404;SDS011;6773;51.192;7.024;2023-06-10T14:31:39;8.13;;;5.32;;
13404;SDS011;6773;51.192;7.024;2023-06-10T14:34:05;5.65;;;5.15;;
13404;SDS011;6773;51.192;7.024;2023-06-10T14:36:33;5.50;;;5.00;;
13404;SDS011;6773;51.192;7.024;2023-06-10T14:38:59;7.25;;;5.30;;
13404;SDS011;6773;51.192;7.024;2023-06-10T14:41:25;6.70;;;4.90;;
13404;SDS011;6773;51.192;7.024;2023-06-10T14:43:51;5.53;;;5.03;;
13404;SDS011;6773;51.192;7.024;2023-06-10T14:46:17;6.90;;;5.30;;
13404;SDS011;6773;51.192;7.024;2023-06-10T14:48:45;5.80;;;5.20;;
13404;SDS011;6773;51.192;7.024;2023-06-10T14:51:11;5.82;;;5.22;;
13404;SDS011;6773;51.192;7.024;2023-06-10T14:53:37;5.93;;;5.32;;
13404;SDS011;6773;51.192;7.024;2023-06-10T14:56:03;9.20;;;4.97;;
13404;SDS011;6773;51.192;7.024;2023-06-10T14:58:28;5.47;;;4.97;;
13404;SDS011;6773;51.192;7.024;2023-06-10T15:00:54;5.47;;;4.63;;
13404;SDS011;6773;51.192;7.024;2023-06-10T15:03:20;7.70;;;5.13;;
13404;SDS011;6773;51.192;7.024;2023-06-10T15:05:46;5.15;;;4.65;;
13404;SDS011;6773;51.192;7.024;2023-06-10T15:08:12;7.30;;;4.65;;
13404;SDS011;6773;51.192;7.024;2023-06-10T15:10:38;4.95;;;4.55;;
13404;SDS011;6773;51.192;7.024;2023-06-10T15:13:04;7.07;;;4.57;;
13404;SDS011;6773;51.192;7.024;2023-06-10T15:15:29;6.55;;;4.80;;
13404;SDS011;6773;51.192;7.024;2023-06-10T15:17:55;5.20;;;4.75;;
13404;SDS011;6773;51.192;7.024;2023-06-10T15:20:21;4.70;;;4.30;;
13404;SDS011;6773;51.192;7.024;2023-06-10T15:22:47;6.40;;;4.63;;
13404;SDS011;6773;51.192;7.024;2023-06-10T15:25:13;5.68;;;4.50;;
13404;SDS011;6773;51.192;7.024;2023-06-10T15:27:39;5.38;;;4.40;;